Time;durP1;ratioP1;P1;durP2;ratioP2;P2;SDS_P1;SDS_P2;PMS_P1;PMS_P2;Temp;Humidity;BMP_temperature;BMP_pressure;BME280_temperature;BME280_humidity;BME280_pressure;Samples;Min_cycle;Max_cycle;Signal;HPM_P1;HPM_P2
2022/01/16 00:02:07;;;;;;;0.30;0.10;;;-3.60;99.90;;;;;;5092257;28;20197;-85
2022/01/16 00:04:31;;;;;;;0.30;0.10;;;-3.70;99.90;;;;;;5090096;28;20211;-84
2022/01/16 00:07:01;;;;;;;0.30;0.10;;;-3.60;99.90;;;;;;5092635;28;20663;-85
2022/01/16 00:09:30;;;;;;;0.30;0.10;;;-3.70;99.90;;;;;;5090418;28;20529;-86
2022/01/16 00:11:59;;;;;;;0.30;0.20;;;-3.60;99.90;;;;;;5092236;28;20193;-86
2022/01/16 00:14:28;;;;;;;0.30;0.10;;;-3.50;99.90;;;;;;5091820;28;20228;-86
2022/01/16 00:16:55;;;;;;;0.30;0.15;;;-3.70;99.90;;;;;;5091934;28;20282;-85
2022/01/16 00:19:22;;;;;;;0.30;0.10;;;-3.70;99.90;;;;;;5089058;28;20262;-84
2022/01/16 00:21:49;;;;;;;0.30;0.10;;;-3.70;99.90;;;;;;5088424;28;20783;-86
2022/01/16 00:24:16;;;;;;;0.30;0.10;;;-3.80;99.90;;;;;;5092319;28;20193;-85
2022/01/16 00:26:44;;;;;;;0.30;0.10;;;-3.80;99.90;;;;;;5087923;28;20211;-85
2022/01/16 00:29:12;;;;;;;0.30;0.10;;;-3.80;99.90;;;;;;5090701;28;20326;-85
2022/01/16 00:31:41;;;;;;;0.30;0.10;;;-3.80;99.90;;;;;;5092291;28;20652;-85
2022/01/16 00:34:09;;;;;;;0.40;0.40;;;-3.70;99.90;;;;;;5091000;28;20193;-85
2022/01/16 00:36:36;;;;;;;0.30;0.10;;;-3.60;99.90;;;;;;5090408;28;20208;-88
2022/01/16 00:39:04;;;;;;;0.30;0.10;;;-3.60;99.90;;;;;;5088309;28;20268;-85
2022/01/16 00:41:32;;;;;;;2.67;0.88;;;-3.60;99.90;;;;;;5089125;28;20201;-87
2022/01/16 00:44:00;;;;;;;0.35;0.22;;;-3.60;99.90;;;;;;5090981;28;20617;-85
2022/01/16 00:46:27;;;;;;;0.40;0.20;;;-3.70;99.90;;;;;;5089928;28;20334;-85
2022/01/16 00:48:55;;;;;;;0.45;0.45;;;-3.70;99.90;;;;;;5092013;28;20201;-85
2022/01/16 00:51:22;;;;;;;0.30;0.10;;;-3.80;99.90;;;;;;5090415;28;20197;-85
2022/01/16 00:53:49;;;;;;;0.30;0.10;;;-3.90;99.90;;;;;;5088880;28;20193;-85
2022/01/16 00:56:16;;;;;;;0.30;0.10;;;-3.90;99.90;;;;;;5091686;28;20201;-86
2022/01/16 00:58:43;;;;;;;0.30;0.10;;;-4.00;99.90;;;;;;5091134;28;20245;-85
2022/01/16 01:01:12;;;;;;;0.30;0.10;;;-4.00;99.90;;;;;;5091722;28;20578;-86
2022/01/16 01:03:39;;;;;;;0.40;0.20;;;-3.90;99.90;;;;;;5104184;28;20193;-86
2022/01/16 01:06:07;;;;;;;0.30;0.10;;;-3.90;99.90;;;;;;5116074;28;20215;-86
2022/01/16 01:08:34;;;;;;;0.30;0.30;;;-3.80;99.90;;;;;;5108559;28;20533;-85
2022/01/16 01:11:06;;;;;;;1.48;1.33;;;-3.90;99.90;;;;;;5108609;28;20193;-86
2022/01/16 01:13:44;;;;;;;0.30;0.10;;;-3.90;99.90;;;;;;5088929;28;20190;-86
2022/01/16 01:16:15;;;;;;;0.30;0.10;;;-3.90;99.90;;;;;;5083716;28;20632;-84
2022/01/16 01:18:44;;;;;;;0.30;0.10;;;-3.90;99.90;;;;;;5085155;28;21029;-85
2022/01/16 01:21:24;;;;;;;0.30;0.10;;;-3.80;99.90;;;;;;5090663;28;20200;-85
2022/01/16 01:23:51;;;;;;;0.30;0.10;;;-3.80;99.90;;;;;;5089278;28;20196;-83
2022/01/16 01:26:19;;;;;;;0.30;0.10;;;-3.80;99.90;;;;;;5090354;28;20216;-85
2022/01/16 01:28:46;;;;;;;0.38;0.22;;;-3.80;99.90;;;;;;5090270;28;20280;-84
2022/01/16 01:31:14;;;;;;;0.30;0.10;;;-3.80;99.90;;;;;;5091776;28;20215;-86
2022/01/16 01:33:42;;;;;;;0.30;0.10;;;-3.70;99.90;;;;;;5090957;28;20284;-86
2022/01/16 01:36:08;;;;;;;0.30;0.10;;;-3.80;99.90;;;;;;5088020;28;20648;-85
2022/01/16 01:38:35;;;;;;;0.65;0.60;;;-3.90;99.90;;;;;;5091661;28;20220;-87
2022/01/16 01:41:03;;;;;;;0.30;0.10;;;-3.90;99.90;;;;;;5090942;28;20973;-88
2022/01/16 01:51:46;;;;;;;0.30;0.10;;;-3.90;99.90;;;;;;5090086;28;20231;-86
2022/01/16 01:54:14;;;;;;;0.30;0.10;;;-3.90;99.90;;;;;;5090431;28;20204;-85
2022/01/16 01:56:42;;;;;;;0.30;0.10;;;-4.00;99.90;;;;;;5087016;28;20562;-85
2022/01/16 01:59:10;;;;;;;0.30;0.10;;;-3.90;99.90;;;;;;5087336;28;20244;-84
2022/01/16 02:01:38;;;;;;;0.30;0.10;;;-3.90;99.90;;;;;;5089990;28;20250;-86
2022/01/16 02:04:05;;;;;;;0.30;0.10;;;-3.90;99.90;;;;;;5087259;28;20270;-88
2022/01/16 02:06:34;;;;;;;0.82;0.82;;;-3.90;99.90;;;;;;5089870;28;20192;-85
2022/01/16 02:09:04;;;;;;;0.30;0.10;;;-3.70;99.90;;;;;;5090092;28;20203;-85
2022/01/16 02:11:32;;;;;;;0.30;0.10;;;-3.60;99.90;;;;;;5087903;28;20188;-85
2022/01/16 02:14:06;;;;;;;0.30;0.20;;;-3.60;99.90;;;;;;5089037;28;20200;-84
2022/01/16 02:35:42;;;;;;;0.68;0.63;;;-3.20;99.90;;;;;;5085912;28;20755;-86
2022/01/16 02:38:11;;;;;;;0.30;0.10;;;-3.20;99.90;;;;;;5093903;28;20238;-85
2022/01/16 02:40:43;;;;;;;0.30;0.10;;;-3.20;99.90;;;;;;5114363;28;20218;-85
2022/01/16 02:43:11;;;;;;;0.30;0.10;;;-3.30;99.90;;;;;;5105497;28;20214;-84
2022/01/16 02:45:44;;;;;;;0.30;0.10;;;-3.20;99.90;;;;;;5108343;28;20196;-85
2022/01/16 02:48:11;;;;;;;2.17;2.08;;;-3.20;99.90;;;;;;5091584;28;20805;-87
2022/01/16 02:50:39;;;;;;;0.30;0.10;;;-3.20;99.90;;;;;;5087295;28;20261;-89
2022/01/16 02:53:09;;;;;;;0.93;0.93;;;-3.10;99.90;;;;;;5084454;28;20197;-86
2022/01/16 02:55:41;;;;;;;0.30;0.20;;;-3.00;99.90;;;;;;5089013;28;20656;-87
2022/01/16 02:58:08;;;;;;;0.30;0.10;;;-3.00;99.90;;;;;;5088715;28;20290;-85
2022/01/16 03:00:35;;;;;;;0.30;0.10;;;-2.90;99.90;;;;;;5086918;28;20334;-85
2022/01/16 03:03:02;;;;;;;0.30;0.20;;;-2.80;99.90;;;;;;5089464;28;20647;-85
2022/01/16 03:05:29;;;;;;;0.30;0.10;;;-2.80;99.90;;;;;;5086688;28;20196;-84
2022/01/16 03:07:56;;;;;;;0.30;0.10;;;-2.70;99.90;;;;;;5085644;28;20192;-85
2022/01/16 03:13:09;;;;;;;0.30;0.10;;;-2.60;99.90;;;;;;5088940;28;20330;-85
2022/01/16 03:15:38;;;;;;;0.30;0.10;;;-2.60;99.90;;;;;;5085798;28;20197;-86
2022/01/16 03:23:34;;;;;;;0.30;0.10;;;-2.30;99.90;;;;;;5086952;28;20215;-87
2022/01/16 03:26:01;;;;;;;0.30;0.10;;;-2.30;99.90;;;;;;5089172;28;20201;-85
2022/01/16 03:28:30;;;;;;;0.30;0.10;;;-2.20;99.90;;;;;;5086154;28;20197;-85
2022/01/16 03:30:57;;;;;;;0.30;0.10;;;-2.20;99.90;;;;;;5088842;28;20254;-84
2022/01/16 03:33:24;;;;;;;0.30;0.10;;;-2.10;99.90;;;;;;5088241;28;20209;-85
2022/01/16 03:35:51;;;;;;;2.15;1.65;;;-2.00;99.90;;;;;;5091747;28;20201;-87
2022/01/16 03:38:18;;;;;;;0.30;0.10;;;-2.00;99.90;;;;;;5092794;28;20228;-85
2022/01/16 03:40:45;;;;;;;0.30;0.10;;;-1.90;99.90;;;;;;5092793;28;20251;-87
2022/01/16 03:43:14;;;;;;;0.30;0.20;;;-1.90;99.90;;;;;;5091679;28;20197;-87
2022/01/16 03:45:47;;;;;;;0.30;0.10;;;-1.80;99.90;;;;;;5092082;28;20304;-85
2022/01/16 03:48:14;;;;;;;0.30;0.10;;;-1.90;99.90;;;;;;5089340;28;20206;-84
2022/01/16 03:50:41;;;;;;;0.30;0.20;;;-1.90;99.90;;;;;;5092826;28;20619;-85
2022/01/16 03:53:08;;;;;;;0.30;0.20;;;-1.90;99.90;;;;;;5089335;28;20194;-85
2022/01/16 03:55:36;;;;;;;0.80;0.73;;;-1.80;99.90;;;;;;5091593;28;20198;-85
2022/01/16 03:58:03;;;;;;;1.08;0.90;;;-1.90;99.90;;;;;;5088738;28;20294;-85
2022/01/16 04:00:30;;;;;;;0.30;0.10;;;-1.80;99.90;;;;;;5089889;28;20197;-85
2022/01/16 04:02:59;;;;;;;0.40;0.10;;;-1.80;99.90;;;;;;5092281;28;20193;-85
2022/01/16 04:05:26;;;;;;;1.67;1.15;;;-1.80;99.90;;;;;;5090319;28;20341;-85
2022/01/16 04:07:53;;;;;;;0.30;0.20;;;-1.70;99.90;;;;;;5089463;28;20201;-88
2022/01/16 04:10:21;;;;;;;0.30;0.10;;;-1.70;99.90;;;;;;5092171;28;20201;-88
2022/01/16 04:12:48;;;;;;;4.93;2.15;;;-1.70;99.90;;;;;;5097293;28;20197;-86
2022/01/16 04:15:34;;;;;;;0.40;0.30;;;-1.70;99.90;;;;;;5116036;28;20189;-86
2022/01/16 04:18:06;;;;;;;0.30;0.20;;;-1.70;99.90;;;;;;5107471;28;20620;-86
2022/01/16 04:20:34;;;;;;;0.30;0.10;;;-1.60;99.90;;;;;;5095444;28;20197;-86
2022/01/16 04:23:02;;;;;;;0.30;0.10;;;-1.50;99.90;;;;;;5094306;28;20197;-87
2022/01/16 04:25:29;;;;;;;0.30;0.10;;;-1.50;99.90;;;;;;5085661;28;20203;-86
2022/01/16 04:27:56;;;;;;;0.30;0.10;;;-1.50;99.90;;;;;;5092579;28;20723;-86
2022/01/16 04:30:24;;;;;;;0.30;0.20;;;-1.60;99.90;;;;;;5090656;28;20341;-86
2022/01/16 04:32:51;;;;;;;0.30;0.10;;;-1.50;99.90;;;;;;5088830;28;20246;-88
2022/01/16 04:35:19;;;;;;;0.30;0.10;;;-1.50;99.90;;;;;;5091749;28;20197;-86
2022/01/16 04:37:46;;;;;;;0.30;0.10;;;-1.50;99.90;;;;;;5091345;28;20211;-86
2022/01/16 04:40:14;;;;;;;0.30;0.10;;;-1.60;99.90;;;;;;5091509;28;20220;-87
2022/01/16 04:45:26;;;;;;;0.40;0.30;;;-1.50;99.90;;;;;;5091003;28;20215;-86
2022/01/16 04:47:53;;;;;;;0.77;0.77;;;-1.50;99.90;;;;;;5090893;28;20258;-87
2022/01/16 04:50:25;;;;;;;0.30;0.10;;;-1.50;99.90;;;;;;5091002;28;20197;-88
2022/01/16 04:52:52;;;;;;;0.30;0.10;;;-1.40;99.90;;;;;;5089503;28;20520;-86
2022/01/16 04:55:19;;;;;;;0.30;0.10;;;-1.30;99.90;;;;;;5090742;28;20579;-87
2022/01/16 04:57:46;;;;;;;0.30;0.10;;;-1.20;99.90;;;;;;5088448;28;20701;-87
2022/01/16 05:00:15;;;;;;;0.30;0.10;;;-1.30;99.90;;;;;;5091666;28;20744;-88
2022/01/16 05:02:43;;;;;;;1.25;1.23;;;-1.20;99.90;;;;;;5090562;28;20729;-87
2022/01/16 05:05:10;;;;;;;0.30;0.20;;;-1.30;99.90;;;;;;5088082;28;20544;-87
2022/01/16 05:07:39;;;;;;;0.30;0.10;;;-1.30;99.90;;;;;;5092470;28;20224;-86
2022/01/16 05:10:07;;;;;;;0.30;0.10;;;-1.30;99.90;;;;;;5090826;28;20238;-88
2022/01/16 05:12:39;;;;;;;0.30;0.10;;;-1.30;99.90;;;;;;5090159;28;20211;-86
2022/01/16 05:17:52;;;;;;;0.30;0.10;;;-1.40;99.90;;;;;;5088993;28;20660;-87
2022/01/16 05:20:19;;;;;;;0.30;0.20;;;-1.40;99.90;;;;;;5089925;28;20222;-86
2022/01/16 05:22:48;;;;;;;0.30;0.20;;;-1.30;99.90;;;;;;5090065;28;20638;-86
2022/01/16 05:25:17;;;;;;;0.30;0.10;;;-1.30;99.90;;;;;;5091320;28;20262;-88
2022/01/16 05:27:44;;;;;;;0.30;0.10;;;-1.30;99.90;;;;;;5090653;28;20189;-87
2022/01/16 05:30:11;;;;;;;0.30;0.20;;;-1.30;99.90;;;;;;5084444;28;20250;-87
2022/01/16 05:32:38;;;;;;;0.68;0.68;;;-1.30;99.90;;;;;;5089831;28;20204;-87
2022/01/16 05:35:06;;;;;;;0.30;0.10;;;-1.20;99.90;;;;;;5090489;28;20667;-87
2022/01/16 05:37:33;;;;;;;0.30;0.10;;;-1.20;99.90;;;;;;5089568;28;20205;-87
2022/01/16 05:40:02;;;;;;;0.30;0.20;;;-1.30;99.90;;;;;;5090399;28;20303;-87
2022/01/16 05:42:29;;;;;;;0.30;0.10;;;-1.20;99.90;;;;;;5089651;28;20820;-86
2022/01/16 05:44:56;;;;;;;0.30;0.10;;;-1.20;99.90;;;;;;5090416;28;20225;-86
2022/01/16 05:47:23;;;;;;;0.30;0.10;;;-1.20;99.90;;;;;;5089851;28;20236;-86
2022/01/16 05:49:50;;;;;;;0.30;0.20;;;-1.20;99.90;;;;;;5111341;28;20185;-87
2022/01/16 05:52:17;;;;;;;0.35;0.25;;;-1.30;99.90;;;;;;5112068;28;20193;-86
2022/01/16 05:54:44;;;;;;;0.30;0.20;;;-1.20;99.90;;;;;;5104795;28;20201;-86
2022/01/16 05:57:12;;;;;;;0.30;0.10;;;-1.20;99.90;;;;;;5096871;28;20237;-87
2022/01/16 05:59:39;;;;;;;0.30;0.20;;;-1.30;99.90;;;;;;5090451;28;20683;-85
2022/01/16 06:02:06;;;;;;;1.50;0.20;;;-1.20;99.90;;;;;;5085853;28;20193;-87
2022/01/16 06:04:33;;;;;;;0.30;0.10;;;-1.20;99.90;;;;;;5087665;28;20498;-86
2022/01/16 06:07:00;;;;;;;0.30;0.10;;;-1.20;99.90;;;;;;5089588;28;20635;-88
2022/01/16 06:09:28;;;;;;;0.30;0.20;;;-1.20;99.90;;;;;;5089925;28;20209;-88
2022/01/16 06:11:55;;;;;;;0.30;0.10;;;-1.10;99.90;;;;;;5089640;28;20670;-87
2022/01/16 06:14:25;;;;;;;0.30;0.10;;;-1.10;99.90;;;;;;5086785;28;20648;-87
2022/01/16 06:16:52;;;;;;;0.30;0.17;;;-1.00;99.90;;;;;;5089620;28;20235;-87
2022/01/16 06:19:20;;;;;;;0.30;0.10;;;-1.10;99.90;;;;;;5087276;28;20490;-87
2022/01/16 06:21:47;;;;;;;0.30;0.10;;;-1.20;99.90;;;;;;5089073;28;20250;-88
2022/01/16 06:24:14;;;;;;;0.30;0.20;;;-1.20;99.90;;;;;;5089148;28;20231;-88
2022/01/16 06:26:41;;;;;;;0.30;0.10;;;-1.20;99.90;;;;;;5087812;28;20331;-86
2022/01/16 06:29:09;;;;;;;0.30;0.10;;;-1.30;99.90;;;;;;5088719;28;20199;-86
2022/01/16 06:31:39;;;;;;;0.55;0.45;;;-1.30;99.90;;;;;;5090422;28;20200;-87
2022/01/16 06:34:06;;;;;;;0.30;0.10;;;-1.30;99.90;;;;;;5089041;28;20600;-87
2022/01/16 06:36:34;;;;;;;0.30;0.10;;;-1.30;99.90;;;;;;5090604;28;20197;-89
2022/01/16 06:39:03;;;;;;;0.30;0.20;;;-1.20;99.90;;;;;;5088536;28;20214;-88
2022/01/16 06:41:30;;;;;;;0.30;0.15;;;-1.20;99.90;;;;;;5087898;28;20263;-89
2022/01/16 06:43:58;;;;;;;0.30;0.10;;;-1.30;99.90;;;;;;5081084;28;20636;-89
2022/01/16 06:46:25;;;;;;;0.30;0.10;;;-1.30;99.90;;;;;;5088618;28;20210;-90
2022/01/16 06:48:54;;;;;;;0.30;0.10;;;-1.20;99.90;;;;;;5084085;28;20197;-87
2022/01/16 06:51:24;;;;;;;0.30;0.10;;;-1.20;99.90;;;;;;5085471;28;20675;-89
2022/01/16 06:53:53;;;;;;;0.30;0.20;;;-1.20;99.90;;;;;;5086457;28;20194;-88
2022/01/16 06:56:21;;;;;;;0.30;0.20;;;-1.10;99.90;;;;;;5088575;28;20985;-87
2022/01/16 06:58:48;;;;;;;0.30;0.10;;;-1.10;99.90;;;;;;5079821;28;20275;-90
2022/01/16 07:01:15;;;;;;;0.68;0.68;;;-1.10;99.90;;;;;;5076428;28;20287;-89
2022/01/16 07:03:42;;;;;;;0.30;0.10;;;-1.20;99.90;;;;;;5078220;28;20242;-89
2022/01/16 07:06:10;;;;;;;0.30;0.10;;;-1.10;99.90;;;;;;5088130;28;20221;-89
2022/01/16 07:08:37;;;;;;;0.40;0.28;;;-1.10;99.90;;;;;;5087839;28;20274;-89
2022/01/16 07:11:04;;;;;;;0.30;0.10;;;-1.20;99.90;;;;;;5080233;28;20331;-89
2022/01/16 07:13:31;;;;;;;0.30;0.10;;;-1.10;99.90;;;;;;5089723;28;20335;-88
2022/01/16 07:15:58;;;;;;;0.30;0.10;;;-1.20;99.90;;;;;;5109518;28;20217;-89
2022/01/16 07:18:26;;;;;;;0.40;0.30;;;-1.20;99.90;;;;;;5111825;28;20189;-89
2022/01/16 07:20:53;;;;;;;0.30;0.17;;;-1.20;99.90;;;;;;5105034;28;20217;-90
2022/01/16 07:23:22;;;;;;;0.30;0.10;;;-1.10;99.90;;;;;;5114315;28;20192;-89
2022/01/16 07:25:49;;;;;;;0.30;0.10;;;-1.00;99.90;;;;;;5111913;28;20196;-90
2022/01/16 07:28:17;;;;;;;0.30;0.10;;;-1.20;99.90;;;;;;5113884;28;20209;-90
2022/01/16 07:30:46;;;;;;;0.30;0.10;;;-1.10;99.90;;;;;;5120914;28;20182;-89
2022/01/16 07:33:13;;;;;;;0.30;0.10;;;-1.20;99.90;;;;;;5119478;28;20230;-88
2022/01/16 07:35:40;;;;;;;0.30;0.10;;;-1.10;99.90;;;;;;5101335;28;20187;-89
2022/01/16 07:38:09;;;;;;;0.75;0.75;;;-1.10;99.90;;;;;;5115546;28;20191;-88
2022/01/16 07:40:38;;;;;;;0.30;0.20;;;-1.20;99.90;;;;;;5116754;28;20214;-89
2022/01/16 07:43:05;;;;;;;0.30;0.10;;;-1.00;99.90;;;;;;5112363;28;20197;-88
2022/01/16 07:45:32;;;;;;;0.30;0.10;;;-1.10;99.90;;;;;;5114767;28;20203;-90
2022/01/16 07:47:59;;;;;;;0.30;0.30;;;-1.20;99.90;;;;;;5102793;28;20197;-89
2022/01/16 07:50:26;;;;;;;0.30;0.10;;;-1.10;99.90;;;;;;5100704;28;20202;-91
2022/01/16 07:52:53;;;;;;;0.30;0.10;;;-1.00;99.90;;;;;;5099468;28;20209;-91
2022/01/16 07:55:24;;;;;;;0.30;0.10;;;-1.20;99.90;;;;;;5099024;28;20327;-89
2022/01/16 07:57:53;;;;;;;0.30;0.10;;;-1.30;99.90;;;;;;5094625;28;20225;-90
2022/01/16 08:00:20;;;;;;;0.30;0.10;;;-1.50;99.90;;;;;;5094518;28;20271;-91
2022/01/16 08:02:47;;;;;;;0.80;0.80;;;-1.30;99.90;;;;;;5094621;28;20212;-90
2022/01/16 08:05:15;;;;;;;0.30;0.10;;;-1.40;99.90;;;;;;5090627;28;20266;-90
2022/01/16 08:07:42;;;;;;;0.30;0.10;;;-1.40;99.90;;;;;;5085082;28;20200;-90
2022/01/16 08:10:10;;;;;;;0.60;0.55;;;-1.40;99.90;;;;;;5087720;28;20193;-90
2022/01/16 08:12:37;;;;;;;0.30;0.17;;;-1.40;99.90;;;;;;5089517;28;20267;-89
2022/01/16 08:15:07;;;;;;;0.30;0.10;;;-1.30;99.90;;;;;;5089695;28;20194;-89
2022/01/16 08:17:36;;;;;;;2.25;0.82;;;-1.30;99.90;;;;;;5089845;28;20194;-89
2022/01/16 08:20:04;;;;;;;1.05;1.05;;;-1.40;99.90;;;;;;5088196;28;20214;-90
2022/01/16 08:22:31;;;;;;;0.40;0.28;;;-1.50;99.90;;;;;;5092958;28;21008;-91
2022/01/16 08:24:59;;;;;;;0.30;0.10;;;-1.50;99.90;;;;;;5092714;28;20256;-89
2022/01/16 08:27:26;;;;;;;0.30;0.10;;;-1.60;99.90;;;;;;5091429;28;20193;-85
2022/01/16 08:30:17;;;;;;;0.30;0.10;;;-1.50;99.90;;;;;;5087218;28;20227;-87
2022/01/16 08:32:44;;;;;;;0.30;0.10;;;-1.40;99.90;;;;;;5088450;28;20189;-88
2022/01/16 08:35:12;;;;;;;0.30;0.20;;;-1.20;99.90;;;;;;5085271;28;20233;-87
2022/01/16 08:37:39;;;;;;;0.30;0.20;;;-1.10;99.90;;;;;;5085549;28;20672;-89
2022/01/16 08:40:07;;;;;;;0.30;0.10;;;-1.00;99.90;;;;;;5086834;28;20213;-89
2022/01/16 08:42:35;;;;;;;0.30;0.10;;;-1.10;99.90;;;;;;5087724;28;20206;-89
2022/01/16 08:45:02;;;;;;;0.30;0.10;;;-1.10;99.90;;;;;;5092097;28;20210;-87
2022/01/16 08:47:31;;;;;;;0.40;0.30;;;-1.10;99.90;;;;;;5091300;28;20205;-87
2022/01/16 08:49:58;;;;;;;0.30;0.30;;;-1.00;99.90;;;;;;5091205;28;20226;-84
2022/01/16 08:52:26;;;;;;;5.55;1.10;;;-0.90;99.90;;;;;;5090692;28;20286;-86
2022/01/16 08:54:53;;;;;;;0.30;0.20;;;-1.00;99.90;;;;;;5089938;28;20193;-85
2022/01/16 08:57:19;;;;;;;0.30;0.20;;;-1.00;99.90;;;;;;5092433;28;20780;-87
2022/01/16 08:59:46;;;;;;;0.30;0.10;;;-1.00;99.90;;;;;;5114371;28;20198;-86
2022/01/16 09:02:13;;;;;;;0.30;0.10;;;-0.90;99.90;;;;;;5107716;28;20217;-83
2022/01/16 09:04:42;;;;;;;0.30;0.10;;;-1.00;99.90;;;;;;5104534;28;20197;-84
2022/01/16 09:07:09;;;;;;;0.30;0.10;;;-0.90;99.90;;;;;;5097396;28;20268;-85
2022/01/16 09:09:36;;;;;;;0.30;0.10;;;-1.00;99.90;;;;;;5087240;28;20211;-84
2022/01/16 09:12:03;;;;;;;0.30;0.10;;;-0.90;99.90;;;;;;5087154;28;20204;-85
2022/01/16 09:14:30;;;;;;;0.63;0.63;;;-0.80;99.90;;;;;;5084189;28;20677;-84
2022/01/16 09:16:57;;;;;;;0.30;0.10;;;-0.70;99.90;;;;;;5088633;28;20637;-84
2022/01/16 09:19:24;;;;;;;0.30;0.10;;;-0.70;99.90;;;;;;5087452;28;20242;-84
2022/01/16 09:21:52;;;;;;;0.30;0.20;;;-0.60;99.90;;;;;;5091780;28;20229;-84
2022/01/16 09:24:19;;;;;;;0.30;0.10;;;-0.70;99.90;;;;;;5091833;28;20196;-84
2022/01/16 09:26:46;;;;;;;0.30;0.10;;;-0.90;99.90;;;;;;5090718;28;20579;-84
2022/01/16 09:29:13;;;;;;;0.30;0.10;;;-1.00;99.90;;;;;;5091402;28;20542;-80
2022/01/16 09:31:40;;;;;;;1.65;1.38;;;-1.00;99.90;;;;;;5089189;28;20202;-84
2022/01/16 09:34:08;;;;;;;2.45;2.25;;;-1.00;99.90;;;;;;5090732;28;20197;-91
2022/01/16 09:36:37;;;;;;;1.17;1.08;;;-0.90;99.90;;;;;;5090747;28;20640;-87
2022/01/16 09:39:05;;;;;;;0.80;0.80;;;-0.80;99.90;;;;;;5091463;28;20250;-86
2022/01/16 09:41:32;;;;;;;0.40;0.30;;;-0.80;99.90;;;;;;5091670;28;20221;-87
2022/01/16 09:44:00;;;;;;;0.40;0.35;;;-0.70;99.90;;;;;;5089701;28;20262;-88
2022/01/16 09:46:27;;;;;;;0.30;0.10;;;-0.70;99.90;;;;;;5091257;28;20215;-87
2022/01/16 09:48:54;;;;;;;0.30;0.10;;;-0.70;99.90;;;;;;5091721;28;20266;-87
2022/01/16 09:51:21;;;;;;;0.30;0.10;;;-0.80;99.90;;;;;;5091740;28;20205;-87
2022/01/16 09:53:48;;;;;;;0.30;0.10;;;-0.80;99.90;;;;;;5084602;28;20203;-86
2022/01/16 09:56:16;;;;;;;0.30;0.10;;;-0.90;99.90;;;;;;5071406;28;20205;-86
2022/01/16 09:58:43;;;;;;;0.50;0.50;;;-1.00;99.90;;;;;;5070948;28;20237;-89
2022/01/16 10:01:10;;;;;;;0.30;0.10;;;-1.00;99.90;;;;;;5070748;28;20720;-86
2022/01/16 10:03:40;;;;;;;0.30;0.10;;;-1.00;99.90;;;;;;5080139;28;20737;-86
2022/01/16 10:06:13;;;;;;;1.88;0.95;;;-1.10;99.90;;;;;;5090800;28;20202;-89
2022/01/16 10:08:41;;;;;;;0.30;0.10;;;-1.20;99.90;;;;;;5092052;28;20208;-89
2022/01/16 10:11:24;;;;;;;1.15;1.13;;;-1.20;99.90;;;;;;5073329;28;20225;-86
2022/01/16 10:13:58;;;;;;;0.30;0.10;;;-1.20;99.90;;;;;;5074993;28;20834;-87
2022/01/16 10:16:27;;;;;;;0.40;0.32;;;-1.20;99.90;;;;;;5078503;28;20652;-84
2022/01/16 10:18:54;;;;;;;0.30;0.28;;;-1.20;99.90;;;;;;5070581;28;20209;-86
2022/01/16 10:21:37;;;;;;;0.30;0.10;;;-1.50;99.90;;;;;;5089301;28;20221;-87
2022/01/16 10:24:23;;;;;;;0.30;0.10;;;-1.50;99.90;;;;;;5072054;28;20217;-86
2022/01/16 10:27:14;;;;;;;0.30;0.22;;;-1.60;99.90;;;;;;5091250;28;20300;-85
2022/01/16 10:29:43;;;;;;;1.38;0.40;;;-1.60;99.90;;;;;;5091407;28;20201;-86
2022/01/16 10:32:15;;;;;;;0.30;0.20;;;-1.50;99.90;;;;;;5106631;28;20215;-88
2022/01/16 10:34:43;;;;;;;0.30;0.10;;;-1.50;99.90;;;;;;5115132;28;20216;-85
2022/01/16 10:37:25;;;;;;;0.30;0.10;;;-1.40;99.90;;;;;;5107440;28;20209;-84
2022/01/16 10:39:59;;;;;;;0.30;0.10;;;-1.30;99.90;;;;;;5104118;28;20197;-86
2022/01/16 10:42:29;;;;;;;0.30;0.10;;;-1.20;99.90;;;;;;5092476;28;20222;-86
2022/01/16 10:45:02;;;;;;;1.05;1.05;;;-1.10;99.90;;;;;;5091416;28;20655;-86
2022/01/16 10:47:36;;;;;;;0.30;0.10;;;-1.00;99.90;;;;;;5084065;28;20283;-87
2022/01/16 10:50:08;;;;;;;0.30;0.10;;;-1.00;99.90;;;;;;5071017;28;20641;-86
2022/01/16 10:52:51;;;;;;;0.30;0.10;;;-1.10;99.90;;;;;;5080951;28;20222;-86
2022/01/16 10:55:20;;;;;;;0.30;0.10;;;-0.90;99.90;;;;;;5085433;28;20280;-88
2022/01/16 10:57:48;;;;;;;0.30;0.20;;;-0.80;99.90;;;;;;5087613;28;20283;-87
2022/01/16 11:00:18;;;;;;;0.30;0.15;;;-0.90;99.90;;;;;;5089472;28;20243;-86
2022/01/16 11:02:47;;;;;;;0.30;0.10;;;-0.80;99.90;;;;;;5088187;28;20193;-85
2022/01/16 11:05:17;;;;;;;1.02;0.50;;;-0.80;99.90;;;;;;5087554;28;20593;-84
2022/01/16 11:07:44;;;;;;;0.30;0.10;;;-0.80;99.90;;;;;;5084521;28;20200;-89
2022/01/16 11:10:35;;;;;;;0.30;0.10;;;-0.80;99.90;;;;;;5089204;28;20197;-86
2022/01/16 11:13:06;;;;;;;0.30;0.10;;;-0.80;99.90;;;;;;5066310;28;20364;-88
2022/01/16 11:15:34;;;;;;;0.30;0.10;;;-0.80;99.90;;;;;;5090042;28;20201;-85
2022/01/16 11:18:02;;;;;;;1.40;0.68;;;-0.70;99.90;;;;;;5076194;28;20241;-86
2022/01/16 11:20:33;;;;;;;0.30;0.20;;;-0.60;99.90;;;;;;5086546;28;20373;-85
2022/01/16 11:25:45;;;;;;;0.30;0.10;;;-0.60;99.90;;;;;;5085339;28;20274;-87
2022/01/16 11:28:15;;;;;;;0.30;0.20;;;-0.50;99.90;;;;;;5089779;28;20193;-85
2022/01/16 11:30:47;;;;;;;0.30;0.10;;;-0.40;99.90;;;;;;5083406;28;20243;-85
2022/01/16 11:33:26;;;;;;;1.85;0.98;;;-0.30;99.90;;;;;;5077610;28;20209;-86
2022/01/16 11:35:56;;;;;;;0.30;0.10;;;-0.30;99.90;;;;;;5086119;28;20204;-87
2022/01/16 11:38:25;;;;;;;0.30;0.10;;;-0.30;99.90;;;;;;5100883;28;20209;-85
2022/01/16 11:40:52;;;;;;;0.30;0.15;;;-0.30;99.90;;;;;;5103464;28;20240;-86
2022/01/16 11:43:35;;;;;;;0.30;0.10;;;-0.40;99.90;;;;;;5085929;28;20263;-86
2022/01/16 11:46:13;;;;;;;0.52;0.52;;;-0.40;99.90;;;;;;5074906;28;20595;-87
2022/01/16 11:48:44;;;;;;;0.30;0.10;;;-0.30;99.90;;;;;;5079344;28;20808;-87
2022/01/16 11:51:52;;;;;;;0.30;0.10;;;-0.20;99.90;;;;;;5090944;28;20270;-86
2022/01/16 11:54:28;;;;;;;2.17;2.08;;;-0.10;99.90;;;;;;5094654;28;20229;-89
2022/01/16 11:56:58;;;;;;;0.30;0.20;;;0.10;99.90;;;;;;5092212;28;20286;-88
2022/01/16 11:59:29;;;;;;;0.30;0.10;;;0.10;99.90;;;;;;5094660;28;20190;-88
2022/01/16 12:01:59;;;;;;;0.30;0.10;;;0.30;99.90;;;;;;5092902;28;20225;-86
2022/01/16 12:04:49;;;;;;;0.40;0.30;;;0.30;99.90;;;;;;5100605;28;20232;-85
2022/01/16 12:07:48;;;;;;;0.30;0.10;;;0.40;99.90;;;;;;5105647;28;20214;-84
2022/01/16 12:10:55;;;;;;;0.30;0.10;;;0.60;99.90;;;;;;5107838;28;20225;-85
2022/01/16 12:13:44;;;;;;;0.40;0.30;;;0.60;99.90;;;;;;5089184;28;20199;-85
2022/01/16 12:16:43;;;;;;;0.30;0.20;;;0.70;99.90;;;;;;5093387;28;20298;-86
2022/01/16 12:19:47;;;;;;;0.65;0.65;;;0.70;99.90;;;;;;5088814;28;20201;-87
2022/01/16 12:22:20;;;;;;;0.30;0.10;;;0.70;99.90;;;;;;5087166;28;20220;-86
2022/01/16 12:25:03;;;;;;;0.30;0.10;;;0.60;99.90;;;;;;5086050;28;20192;-86
2022/01/16 12:27:45;;;;;;;0.52;0.52;;;0.60;99.90;;;;;;5091111;28;20390;-86
2022/01/16 12:30:35;;;;;;;0.30;0.10;;;0.70;99.90;;;;;;5080928;28;20218;-87
2022/01/16 12:33:09;;;;;;;0.30;0.10;;;0.80;99.90;;;;;;5089993;28;20204;-86
2022/01/16 12:36:14;;;;;;;0.30;0.20;;;0.90;99.90;;;;;;5088988;28;20297;-87
2022/01/16 12:38:50;;;;;;;0.55;0.55;;;1.10;99.90;;;;;;5088060;28;20208;-85
2022/01/16 12:41:19;;;;;;;0.30;0.10;;;1.10;99.90;;;;;;5087152;28;20229;-86
2022/01/16 12:43:53;;;;;;;0.30;0.10;;;1.10;99.90;;;;;;5085523;28;20260;-85
2022/01/16 12:46:24;;;;;;;0.30;0.10;;;1.10;99.90;;;;;;5088473;28;20189;-85
2022/01/16 12:48:54;;;;;;;0.30;0.10;;;1.10;99.90;;;;;;5092037;28;20339;-88
2022/01/16 12:51:24;;;;;;;0.30;0.10;;;1.10;99.90;;;;;;5077521;28;20198;-86
2022/01/16 12:53:53;;;;;;;1.60;0.57;;;1.10;99.90;;;;;;5091224;28;20200;-85
2022/01/16 12:56:23;;;;;;;0.65;0.50;;;1.30;99.90;;;;;;5084033;28;20194;-88
2022/01/16 12:58:53;;;;;;;0.30;0.10;;;1.30;99.90;;;;;;5073323;28;20233;-85
2022/01/16 13:01:20;;;;;;;0.40;0.30;;;1.40;99.90;;;;;;5078075;28;20233;-89
2022/01/16 13:03:47;;;;;;;0.30;0.20;;;1.40;99.90;;;;;;5091742;28;20449;-87
2022/01/16 13:06:21;;;;;;;0.30;0.10;;;1.40;99.90;;;;;;5090979;28;20225;-86
2022/01/16 13:09:06;;;;;;;0.30;0.10;;;1.30;99.90;;;;;;5086250;28;20283;-87
2022/01/16 13:11:36;;;;;;;0.30;0.10;;;1.40;99.90;;;;;;5071957;28;20208;-86
2022/01/16 13:14:04;;;;;;;0.30;0.20;;;1.50;99.90;;;;;;5084126;28;20296;-85
2022/01/16 13:16:34;;;;;;;0.30;0.10;;;1.40;99.90;;;;;;5089076;28;20276;-85
2022/01/16 13:19:10;;;;;;;0.83;0.77;;;1.30;99.90;;;;;;5089913;28;20530;-88
2022/01/16 13:21:44;;;;;;;0.30;0.10;;;1.20;99.90;;;;;;5072251;28;20981;-88
2022/01/16 13:24:30;;;;;;;0.30;0.10;;;1.20;99.90;;;;;;5081082;28;20212;-88
2022/01/16 13:26:58;;;;;;;0.30;0.10;;;1.20;99.90;;;;;;5074704;28;20264;-88
2022/01/16 13:29:25;;;;;;;0.80;0.75;;;1.10;99.90;;;;;;5085053;28;20196;-90
2022/01/16 13:31:53;;;;;;;0.30;0.10;;;1.20;99.90;;;;;;5090605;28;20254;-85
2022/01/16 13:34:32;;;;;;;0.30;0.10;;;1.10;99.90;;;;;;5084779;28;20198;-88
2022/01/16 13:37:01;;;;;;;0.30;0.10;;;1.00;99.90;;;;;;5072152;28;20248;-86
2022/01/16 13:39:37;;;;;;;0.30;0.10;;;1.00;99.90;;;;;;5074957;28;20253;-86
2022/01/16 13:42:40;;;;;;;0.30;0.10;;;1.00;99.90;;;;;;5095676;28;20321;-86
2022/01/16 13:45:32;;;;;;;0.30;0.10;;;0.90;99.90;;;;;;5086330;28;20202;-85
2022/01/16 13:48:05;;;;;;;0.30;0.20;;;0.90;99.90;;;;;;5086858;28;20222;-84